メインページ
METAR-TAF:

METAR-TAF

空港 :

コルツォヴォ国際空港

エカテリンブルク, ロシア

緯度: 56-50N, 経度: 060-38E, 海抜: 237m

現時点の気象観測

当レポートは25分前の19:30(UTC)に作成
の風 4kt、南東から西/南西の間で変化する
気温 17°C
湿度 48%
気圧 1008 hPa
視程10km以上
1,500メートル以下は雲なし、積乱雲なし

METAR: USSS 181930Z 19002MPS 130V250 CAVOK 17/06 Q1008 R08L/010060 R08R/010060 NOSIG RMK QFE736/0981

時間: 00:55 (19:55 UTC)

予報

当レポートは2時間59分前の16:56(UTC)に作成
予報は18日の 18時(UTC)から 19日の 18時(UTC)まで有効
南東の風 10kt、最大29ktの突風を伴う
視程10km以上
高度2000ftの千切れ雲あり, 積乱雲.
19日の 00時(UTC)から 19日の 15時(UTC)まで一時的に
の風 12kt、最大29ktの突風を伴う
激しい雷雨, 小雨
19日の 15時(UTC)から 19日の 16時(UTC)まで徐々に
南/南西の風 6kt、最大16ktの突風を伴う

TAF: USSS 181656Z 1818/1918 14005G15MPS 9999 BKN020CB TEMPO 1900/1915 18006G15MPS -TSRA BECMG 1915/1916 20003G08MPS

4,000以上の空港の気象観測と天気予報(METAR報とTAF報)

利用可能な観測所は地図上に黄色い丸と赤い丸で示す。

丸の上にカーソルを重ねると観測所名を参照できる。

次にクリックすると気象観測と天気予報を参照できる。

マップの切り替え:黒色「×」印の緑ボタンをクリックして拡大、「-」印の緑ボタンをクリックして縮小、緑色の三角印をクリックして隣りの地図に切り替え


METAR-TAF: